Time;durP1;ratioP1;P1;durP2;ratioP2;P2;SDS_P1;SDS_P2;PMS_P1;PMS_P2;Temp;Humidity;BMP_temperature;BMP_pressure;BME280_temperature;BME280_humidity;BME280_pressure;Samples;Min_cycle;Max_cycle;Signal;HPM_P1;HPM_P2
2021/12/12 00:02:22;;;;;;;82.88;34.88;;;;;;;1.21;100.00;101932.09;4929755;29;20039;-77
2021/12/12 00:04:50;;;;;;;88.95;32.45;;;;;;;1.13;100.00;101922.88;4924380;29;20032;-76
2021/12/12 00:07:21;;;;;;;91.35;34.50;;;;;;;1.15;100.00;101933.16;4909556;29;20111;-76
2021/12/12 00:09:52;;;;;;;81.22;32.83;;;;;;;1.11;100.00;101936.75;4913357;29;20046;-78
2021/12/12 00:12:24;;;;;;;84.10;34.67;;;;;;;1.22;100.00;101949.28;4917347;29;20119;-77
2021/12/12 00:14:54;;;;;;;88.95;34.28;;;;;;;1.22;100.00;101944.94;4901444;29;20561;-78
2021/12/12 00:17:21;;;;;;;89.15;34.78;;;;;;;1.23;100.00;101936.31;4928690;29;20047;-77
2021/12/12 00:19:48;;;;;;;84.22;34.15;;;;;;;1.21;100.00;101937.28;4898612;29;20130;-76
2021/12/12 00:22:19;;;;;;;92.47;35.53;;;;;;;1.19;100.00;101937.31;4902066;29;20048;-79
2021/12/12 00:24:45;;;;;;;85.45;33.47;;;;;;;1.22;100.00;101929.44;4901228;29;20036;-77
2021/12/12 00:27:11;;;;;;;87.40;33.92;;;;;;;1.20;100.00;101933.81;4915977;29;20051;-78
2021/12/12 00:29:38;;;;;;;91.53;34.35;;;;;;;1.16;100.00;101935.66;4916689;29;20036;-77
2021/12/12 00:32:08;;;;;;;87.20;35.33;;;;;;;1.15;100.00;101938.34;4897875;29;20036;-76
2021/12/12 00:34:40;;;;;;;86.72;34.83;;;;;;;1.19;100.00;101934.72;4930402;29;20047;-76
2021/12/12 00:37:08;;;;;;;95.20;36.00;;;;;;;1.22;100.00;101939.78;4912590;29;20043;-76
2021/12/12 00:39:37;;;;;;;88.63;34.80;;;;;;;1.23;100.00;101935.47;4919926;29;20048;-76
2021/12/12 00:42:08;;;;;;;90.45;35.40;;;;;;;1.27;100.00;101929.28;4915984;29;20032;-77
2021/12/12 00:44:38;;;;;;;94.55;34.50;;;;;;;1.23;100.00;101927.72;4885184;29;20088;-76
2021/12/12 00:47:07;;;;;;;96.95;35.83;;;;;;;1.19;100.00;101926.13;4917341;29;20158;-77
2021/12/12 00:49:37;;;;;;;84.68;34.25;;;;;;;1.26;100.00;101923.28;4930005;29;20047;-77
2021/12/12 00:52:05;;;;;;;94.63;36.42;;;;;;;1.23;100.00;101920.78;4923288;29;20064;-77
2021/12/12 00:54:32;;;;;;;99.28;35.50;;;;;;;1.23;100.00;101917.38;4913044;29;20036;-77
2021/12/12 00:57:01;;;;;;;93.20;35.67;;;;;;;1.17;100.00;101915.84;4924583;29;20108;-78
2021/12/12 00:59:27;;;;;;;104.05;37.28;;;;;;;1.20;100.00;101920.91;4925425;29;20032;-77
2021/12/12 01:01:53;;;;;;;101.70;38.53;;;;;;;1.24;100.00;101917.28;4913669;29;20087;-77
2021/12/12 01:04:31;;;;;;;99.70;37.83;;;;;;;1.19;100.00;101923.53;4900406;29;20102;-77
2021/12/12 01:07:00;;;;;;;107.72;38.40;;;;;;;1.26;100.00;101922.41;4912601;29;20786;-76
2021/12/12 01:09:30;;;;;;;117.57;40.90;;;;;;;1.23;100.00;101935.47;4925436;29;20123;-76
2021/12/12 01:12:00;;;;;;;108.57;39.42;;;;;;;1.18;100.00;101927.88;4897428;29;20467;-76
2021/12/12 01:14:31;;;;;;;110.68;40.05;;;;;;;1.21;100.00;101929.50;4898818;29;20124;-77
2021/12/12 01:17:08;;;;;;;104.30;39.17;;;;;;;1.28;100.00;101929.22;4914337;29;20447;-76
2021/12/12 01:19:43;;;;;;;116.15;40.15;;;;;;;1.21;100.00;101925.19;4884938;29;20070;-78
2021/12/12 01:22:17;;;;;;;111.25;40.05;;;;;;;1.20;100.00;101932.97;4912926;29;20082;-79
2021/12/12 01:24:50;;;;;;;120.28;39.55;;;;;;;1.17;100.00;101929.63;4890483;29;20029;-77
2021/12/12 01:27:18;;;;;;;113.40;40.95;;;;;;;1.14;100.00;101929.72;4897170;29;20805;-77
2021/12/12 01:29:44;;;;;;;110.32;40.60;;;;;;;1.23;100.00;101936.31;4900562;29;20051;-77
2021/12/12 01:32:21;;;;;;;103.72;37.50;;;;;;;1.21;100.00;101937.28;4898432;29;20044;-78
2021/12/12 01:34:50;;;;;;;102.05;38.40;;;;;;;1.24;100.00;101935.38;4892543;29;20145;-77
2021/12/12 01:39:55;;;;;;;110.10;38.95;;;;;;;1.25;100.00;101938.84;4926998;29;20044;-76
2021/12/12 01:42:25;;;;;;;98.88;37.03;;;;;;;1.25;100.00;101944.84;4913629;29;20050;-77
2021/12/12 01:45:04;;;;;;;101.32;36.80;;;;;;;1.23;100.00;101940.63;4917100;29;20035;-78
2021/12/12 01:47:42;;;;;;;97.70;37.50;;;;;;;1.23;100.00;101948.38;4913806;29;20067;-76
2021/12/12 01:50:14;;;;;;;95.10;35.45;;;;;;;1.27;100.00;101942.19;4926311;29;20056;-78
2021/12/12 01:52:41;;;;;;;91.72;36.47;;;;;;;1.27;100.00;101942.19;4914124;29;20578;-77
2021/12/12 01:55:38;;;;;;;88.47;34.75;;;;;;;1.27;100.00;101949.97;4912989;29;20067;-78
2021/12/12 01:58:10;;;;;;;88.80;34.55;;;;;;;1.26;100.00;101938.78;4893054;29;20044;-77
2021/12/12 02:00:44;;;;;;;89.50;35.25;;;;;;;1.26;100.00;101956.88;4904967;29;20109;-77
2021/12/12 02:03:13;;;;;;;82.97;34.33;;;;;;;1.27;100.00;101949.97;4896386;29;20048;-76
2021/12/12 02:05:39;;;;;;;84.47;34.00;;;;;;;1.22;100.00;101936.34;4889803;29;20048;-76
2021/12/12 02:08:09;;;;;;;87.93;34.90;;;;;;;1.25;100.00;101947.41;4944658;29;20047;-77
2021/12/12 02:10:43;;;;;;;87.40;33.47;;;;;;;1.27;100.00;101952.53;4895031;29;20036;-77
2021/12/12 02:13:11;;;;;;;80.10;32.47;;;;;;;1.31;100.00;101956.69;4911870;29;20050;-78
2021/12/12 02:15:38;;;;;;;85.05;33.13;;;;;;;1.29;100.00;101946.41;4880708;29;20040;-77
2021/12/12 02:18:10;;;;;;;76.97;32.00;;;;;;;1.39;100.00;101952.06;4910577;29;20075;-77
2021/12/12 02:20:43;;;;;;;81.07;32.25;;;;;;;1.35;100.00;101941.00;4911088;29;20032;-77
2021/12/12 02:23:36;;;;;;;85.22;32.97;;;;;;;1.35;100.00;101940.16;4892836;29;20376;-76
2021/12/12 02:37:05;;;;;;;83.47;31.48;;;;;;;1.26;100.00;101936.19;4925885;29;20033;-77
2021/12/12 02:39:33;;;;;;;78.80;32.92;;;;;;;1.26;100.00;101937.91;4899800;29;20107;-78
2021/12/12 02:42:04;;;;;;;89.13;32.85;;;;;;;1.31;100.00;101949.78;4898290;29;20048;-77
2021/12/12 02:44:30;;;;;;;82.50;33.33;;;;;;;1.35;100.00;101951.34;4912441;29;20496;-78
2021/12/12 02:47:00;;;;;;;81.68;33.05;;;;;;;1.35;100.00;101947.91;4901259;29;20040;-76
2021/12/12 02:50:06;;;;;;;84.82;32.95;;;;;;;1.36;100.00;101952.19;4902426;29;20076;-76
2021/12/12 02:52:30;;;;;;;77.10;32.88;;;;;;;1.38;100.00;101947.81;4929944;29;20048;-77
2021/12/12 02:55:22;;;;;;;78.00;32.75;;;;;;;1.30;100.00;101942.94;4916937;29;20064;-76
2021/12/12 02:57:47;;;;;;;81.80;32.33;;;;;;;1.35;100.00;101937.56;4921092;29;20505;-77
2021/12/12 03:00:18;;;;;;;90.90;33.17;;;;;;;1.29;100.00;101938.66;4923503;29;20048;-77
2021/12/12 03:02:48;;;;;;;87.38;33.97;;;;;;;1.33;100.00;101940.22;4911638;29;20124;-77
2021/12/12 03:05:16;;;;;;;86.00;32.35;;;;;;;1.33;100.00;101936.78;4907945;28;20043;-77
2021/12/12 03:07:44;;;;;;;75.57;30.77;;;;;;;1.38;100.00;101940.06;4912531;29;20040;-75
2021/12/12 03:10:18;;;;;;;80.03;33.28;;;;;;;1.34;100.00;101935.91;4926286;29;20103;-77
2021/12/12 03:12:44;;;;;;;91.25;33.80;;;;;;;1.33;100.00;101916.13;4910033;29;20490;-76
2021/12/12 03:15:21;;;;;;;85.90;34.22;;;;;;;1.35;100.00;101932.41;4900431;29;20043;-77
2021/12/12 03:17:49;;;;;;;90.30;34.85;;;;;;;1.38;100.00;101924.53;4905592;29;20131;-76
2021/12/12 03:20:32;;;;;;;93.15;35.55;;;;;;;1.43;100.00;101930.41;4908517;29;20072;-79
2021/12/12 03:23:03;;;;;;;93.50;35.50;;;;;;;1.43;100.00;101924.34;4916005;29;20046;-76
2021/12/12 03:25:32;;;;;;;90.43;34.80;;;;;;;1.42;100.00;101930.44;4915398;29;20032;-77
2021/12/12 03:27:59;;;;;;;93.68;35.90;;;;;;;1.40;100.00;101927.06;4901339;29;20040;-76
2021/12/12 03:30:25;;;;;;;88.68;33.47;;;;;;;1.40;100.00;101935.66;4900511;29;20039;-77
2021/12/12 03:32:51;;;;;;;90.28;34.55;;;;;;;1.30;100.00;101935.19;4901187;29;20397;-77
2021/12/12 03:35:17;;;;;;;94.60;35.67;;;;;;;1.36;100.00;101940.13;4927079;29;20035;-77
2021/12/12 03:37:44;;;;;;;101.63;36.83;;;;;;;1.41;100.00;101931.34;4919181;29;20072;-76
2021/12/12 03:40:21;;;;;;;98.13;37.42;;;;;;;1.42;100.00;101933.03;4896724;29;20036;-77
2021/12/12 03:42:49;;;;;;;100.45;35.97;;;;;;;1.42;100.00;101927.88;4911678;29;20070;-77
2021/12/12 03:45:16;;;;;;;100.50;36.55;;;;;;;1.49;100.00;101942.25;4912655;29;20028;-76
2021/12/12 03:47:48;;;;;;;96.18;37.13;;;;;;;1.50;100.00;101930.97;4914181;29;20087;-76
2021/12/12 03:50:23;;;;;;;89.65;35.00;;;;;;;1.46;100.00;101929.44;4926432;29;20050;-76
2021/12/12 03:52:50;;;;;;;103.80;36.45;;;;;;;1.43;100.00;101930.41;4912636;29;20036;-76
2021/12/12 03:55:17;;;;;;;101.55;37.95;;;;;;;1.51;100.00;101941.28;4910782;29;20071;-76
2021/12/12 03:57:43;;;;;;;103.90;38.40;;;;;;;1.54;100.00;101937.72;4911689;29;20043;-77
2021/12/12 04:00:14;;;;;;;98.18;38.60;;;;;;;1.57;100.00;101934.19;4926038;29;20123;-75
2021/12/12 04:02:41;;;;;;;98.90;36.95;;;;;;;1.70;100.00;101932.81;4910165;29;20063;-77
2021/12/12 04:05:07;;;;;;;95.95;36.55;;;;;;;1.63;100.00;101926.19;4907758;29;20086;-76
2021/12/12 04:07:34;;;;;;;102.28;37.50;;;;;;;1.65;100.00;101932.16;4878100;29;20674;-77
2021/12/12 04:10:00;;;;;;;104.10;37.70;;;;;;;1.64;100.00;101927.84;4913385;29;20495;-77
2021/12/12 04:12:27;;;;;;;100.97;39.67;;;;;;;1.64;100.00;101940.78;4910487;29;20096;-76
2021/12/12 04:14:55;;;;;;;98.82;39.22;;;;;;;1.67;100.00;101945.84;4898511;29;20040;-76
2021/12/12 04:17:25;;;;;;;99.57;38.72;;;;;;;1.73;100.00;101946.47;4897289;29;20127;-76
2021/12/12 04:19:54;;;;;;;110.00;40.30;;;;;;;1.81;100.00;101947.88;4901215;29;20100;-76
2021/12/12 04:22:20;;;;;;;102.47;39.80;;;;;;;1.80;100.00;101956.56;4926280;29;20111;-76
2021/12/12 04:24:49;;;;;;;98.25;39.85;;;;;;;1.79;100.00;101944.53;4898728;29;20032;-77
2021/12/12 04:27:17;;;;;;;107.25;39.83;;;;;;;1.85;100.00;101946.91;4896047;29;20040;-77
2021/12/12 04:29:46;;;;;;;102.88;39.30;;;;;;;1.82;100.00;101954.75;4913858;29;20038;-75
2021/12/12 04:32:16;;;;;;;113.03;42.47;;;;;;;1.83;100.00;101952.13;4893547;29;20513;-76
2021/12/12 04:34:47;;;;;;;112.20;40.92;;;;;;;1.85;100.00;101955.50;4908594;29;20483;-77
2021/12/12 04:37:15;;;;;;;108.38;40.33;;;;;;;1.87;100.00;101958.84;4926204;29;20044;-76
2021/12/12 04:39:47;;;;;;;110.43;40.45;;;;;;;1.87;100.00;101952.84;4916023;29;20426;-76
2021/12/12 04:42:30;;;;;;;114.10;40.85;;;;;;;1.91;100.00;101954.41;4912770;29;20081;-75
2021/12/12 04:45:07;;;;;;;103.47;40.97;;;;;;;1.94;100.00;101947.38;4926403;29;20040;-75
2021/12/12 04:50:36;;;;;;;105.68;42.50;;;;;;;1.98;100.00;101948.09;4926935;29;20085;-77
2021/12/12 04:53:08;;;;;;;114.38;42.45;;;;;;;1.95;100.00;101943.84;4912876;29;20082;-78
2021/12/12 04:56:02;;;;;;;114.38;42.35;;;;;;;2.04;100.00;101949.59;4897059;29;20040;-77
2021/12/12 04:58:41;;;;;;;116.20;42.35;;;;;;;1.97;100.00;101941.22;4913783;29;20048;-76
2021/12/12 05:01:17;;;;;;;117.90;43.15;;;;;;;2.00;100.00;101943.69;4912347;29;20040;-76
2021/12/12 05:03:51;;;;;;;114.13;41.50;;;;;;;2.05;100.00;101941.72;4891524;29;20028;-77
2021/12/12 05:06:26;;;;;;;113.25;42.35;;;;;;;2.12;100.00;101932.00;4896479;29;20087;-76
2021/12/12 05:09:01;;;;;;;117.25;41.75;;;;;;;2.14;100.00;101923.25;4916093;29;20042;-76
2021/12/12 05:12:01;;;;;;;113.15;42.30;;;;;;;2.13;100.00;101924.16;4931234;29;20039;-76
2021/12/12 05:14:31;;;;;;;110.82;41.70;;;;;;;2.10;100.00;101923.44;4892251;29;20041;-76
2021/12/12 05:17:17;;;;;;;117.10;43.63;;;;;;;2.09;100.00;101921.75;4921507;29;20112;-75
2021/12/12 05:19:48;;;;;;;112.75;43.30;;;;;;;2.14;100.00;101918.06;4913539;29;20448;-77
2021/12/12 05:22:48;;;;;;;114.88;42.33;;;;;;;2.23;100.00;101918.63;4911823;29;20032;-77
2021/12/12 05:25:20;;;;;;;109.88;42.60;;;;;;;2.16;100.00;101922.34;4896813;29;20048;-76
2021/12/12 05:27:49;;;;;;;109.75;42.80;;;;;;;2.17;100.00;101914.53;4928690;29;20055;-76
2021/12/12 05:30:19;;;;;;;122.28;43.50;;;;;;;2.12;100.00;101912.13;4912788;29;20460;-76
2021/12/12 05:32:47;;;;;;;117.47;41.95;;;;;;;2.21;100.00;101912.66;4913629;29;20072;-77
2021/12/12 05:35:16;;;;;;;109.78;42.83;;;;;;;2.17;100.00;101906.75;4927573;29;20523;-76
2021/12/12 05:37:46;;;;;;;112.95;42.63;;;;;;;2.15;100.00;101916.34;4905450;29;20042;-76
2021/12/12 05:40:12;;;;;;;118.03;42.97;;;;;;;2.18;100.00;101908.44;4911865;29;20047;-75
2021/12/12 05:42:38;;;;;;;113.65;41.78;;;;;;;2.26;100.00;101903.78;4912738;29;20080;-77
2021/12/12 05:45:07;;;;;;;122.13;41.78;;;;;;;2.29;100.00;101903.66;4913437;29;20039;-76
2021/12/12 05:47:33;;;;;;;111.13;42.25;;;;;;;2.26;100.00;101902.94;4909737;29;20431;-76
2021/12/12 05:50:00;;;;;;;120.72;41.47;;;;;;;2.30;100.00;101913.13;4901117;29;20036;-76
2021/12/12 05:52:27;;;;;;;112.53;42.53;;;;;;;2.30;100.00;101912.28;4892848;29;20048;-77
2021/12/12 05:54:53;;;;;;;114.30;40.63;;;;;;;2.34;100.00;101913.81;4894767;29;20458;-77
2021/12/12 05:57:24;;;;;;;111.85;40.20;;;;;;;2.37;100.00;101916.28;4910176;29;20038;-76
2021/12/12 05:59:53;;;;;;;112.85;40.95;;;;;;;2.43;100.00;101921.22;4909777;29;20047;-77
2021/12/12 06:02:19;;;;;;;110.35;40.13;;;;;;;2.44;100.00;101916.88;4910585;29;20451;-75
2021/12/12 06:04:45;;;;;;;110.75;40.75;;;;;;;2.51;100.00;101923.47;4895554;29;20032;-76
2021/12/12 06:07:19;;;;;;;112.63;40.67;;;;;;;2.55;100.00;101913.81;4910178;29;20430;-76
2021/12/12 06:09:50;;;;;;;111.25;41.60;;;;;;;2.64;100.00;101924.63;4902113;29;20123;-76
2021/12/12 06:12:18;;;;;;;107.10;40.38;;;;;;;2.60;100.00;101915.31;4921278;29;20039;-76
2021/12/12 06:14:44;;;;;;;110.53;39.08;;;;;;;2.63;100.00;101909.16;4921450;29;20043;-76
2021/12/12 06:17:13;;;;;;;110.05;40.10;;;;;;;2.67;100.00;101910.69;4905942;29;20051;-75
2021/12/12 06:19:41;;;;;;;104.07;39.03;;;;;;;2.67;100.00;101908.09;4905293;29;20039;-75
2021/12/12 06:22:08;;;;;;;109.72;38.08;;;;;;;2.65;100.00;101908.16;4892917;29;20036;-75
2021/12/12 06:24:37;;;;;;;107.60;38.50;;;;;;;2.60;100.00;101909.25;4910461;29;20040;-77
2021/12/12 06:27:22;;;;;;;105.07;38.05;;;;;;;2.62;100.00;101908.31;4894333;29;20096;-76
2021/12/12 06:29:52;;;;;;;103.78;38.95;;;;;;;2.59;100.00;101898.06;4877770;29;20068;-77
2021/12/12 06:32:19;;;;;;;114.07;39.75;;;;;;;2.57;100.00;101899.88;4923148;29;20091;-77
2021/12/12 06:34:47;;;;;;;110.53;38.25;;;;;;;2.56;100.00;101900.78;4906975;29;20047;-77
2021/12/12 06:37:14;;;;;;;119.45;39.50;;;;;;;2.57;100.00;101904.25;4901454;29;20063;-75
2021/12/12 06:39:40;;;;;;;103.50;39.03;;;;;;;2.58;100.00;101909.34;4894950;29;20593;-76
2021/12/12 06:42:07;;;;;;;101.88;39.22;;;;;;;2.53;100.00;101904.34;4936942;29;20067;-77
2021/12/12 06:44:37;;;;;;;95.97;37.20;;;;;;;2.59;100.00;101910.19;4910963;29;20064;-77
2021/12/12 06:47:03;;;;;;;104.10;39.22;;;;;;;2.55;100.00;101901.72;4892800;29;20036;-76
2021/12/12 06:49:30;;;;;;;117.40;39.47;;;;;;;2.56;100.00;101892.19;4922391;29;20040;-76
2021/12/12 06:52:00;;;;;;;99.10;38.33;;;;;;;2.55;100.00;101898.28;4924540;29;20115;-76
2021/12/12 06:54:28;;;;;;;104.45;37.65;;;;;;;2.53;100.00;101901.78;4907499;29;20036;-76
2021/12/12 06:56:57;;;;;;;108.93;39.38;;;;;;;2.55;100.00;101901.72;4916484;29;20040;-76
2021/12/12 06:59:26;;;;;;;101.07;37.38;;;;;;;2.55;100.00;101891.34;4901529;29;20054;-76
2021/12/12 07:01:53;;;;;;;99.57;37.90;;;;;;;2.55;100.00;101893.09;4909332;29;20036;-76
2021/12/12 07:04:19;;;;;;;102.57;36.40;;;;;;;2.54;100.00;101892.25;4908164;29;20051;-76
2021/12/12 07:06:48;;;;;;;108.22;38.25;;;;;;;2.46;100.00;101889.16;4921498;29;20056;-77
2021/12/12 07:09:15;;;;;;;97.80;35.78;;;;;;;2.54;100.00;101894.84;4908347;29;20036;-77
2021/12/12 07:11:42;;;;;;;87.47;35.63;;;;;;;2.48;100.00;101887.34;4926008;29;20036;-75
2021/12/12 07:14:10;;;;;;;98.63;36.05;;;;;;;2.45;100.00;101884.88;4908491;29;20036;-76
2021/12/12 07:16:37;;;;;;;104.78;37.13;;;;;;;2.44;100.00;101881.44;4888207;29;20127;-77
2021/12/12 07:19:04;;;;;;;95.22;36.17;;;;;;;2.39;100.00;101875.59;4924392;29;20058;-76
2021/12/12 07:21:31;;;;;;;89.60;35.90;;;;;;;2.41;100.00;101875.53;4926868;29;20075;-78
2021/12/12 07:24:01;;;;;;;99.88;37.25;;;;;;;2.45;100.00;101872.78;4910146;29;20071;-76
2021/12/12 07:26:28;;;;;;;90.65;35.97;;;;;;;2.46;100.00;101864.09;4892264;29;20048;-77
2021/12/12 07:28:56;;;;;;;90.18;35.53;;;;;;;2.47;100.00;101863.19;4910519;29;20043;-76
2021/12/12 07:31:28;;;;;;;94.18;36.28;;;;;;;2.39;100.00;101835.94;4909361;29;20829;-77
2021/12/12 07:33:57;;;;;;;92.13;35.83;;;;;;;2.42;100.00;101851.34;4910137;29;20043;-76
2021/12/12 07:36:25;;;;;;;96.78;35.53;;;;;;;2.43;100.00;101847.84;4898912;29;20310;-76
2021/12/12 07:38:58;;;;;;;86.57;33.58;;;;;;;2.41;100.00;101852.25;4914801;29;20511;-78
2021/12/12 07:41:28;;;;;;;93.45;34.03;;;;;;;2.43;100.00;101853.00;4896754;29;20144;-76
2021/12/12 07:43:55;;;;;;;85.63;33.03;;;;;;;2.49;100.00;101852.78;4898474;29;20036;-77
2021/12/12 07:46:22;;;;;;;89.15;33.88;;;;;;;2.50;100.00;101846.66;4944303;29;20044;-76
2021/12/12 07:48:50;;;;;;;87.07;33.05;;;;;;;2.51;100.00;101848.38;4904316;29;20096;-77
2021/12/12 07:51:17;;;;;;;74.60;31.88;;;;;;;2.54;100.00;101850.81;4900330;29;20092;-76
2021/12/12 07:53:43;;;;;;;77.65;31.80;;;;;;;2.43;100.00;101834.88;4912881;29;20050;-75
2021/12/12 07:56:10;;;;;;;81.85;32.60;;;;;;;2.56;100.00;101850.75;4910392;29;20060;-76
2021/12/12 07:58:37;;;;;;;75.10;30.95;;;;;;;2.53;100.00;101851.72;4913870;29;20561;-76
2021/12/12 08:01:05;;;;;;;77.40;29.25;;;;;;;2.53;100.00;101849.97;4910837;29;20135;-75
2021/12/12 08:03:34;;;;;;;71.95;29.10;;;;;;;2.53;100.00;101844.78;4896495;29;20148;-77
2021/12/12 08:06:01;;;;;;;71.07;28.42;;;;;;;2.51;100.00;101845.78;4903389;29;20354;-76
2021/12/12 08:08:28;;;;;;;77.90;29.35;;;;;;;2.59;100.00;101851.44;4911853;29;20112;-75
2021/12/12 08:10:57;;;;;;;78.40;29.05;;;;;;;2.59;100.00;101841.09;4911843;29;20127;-75
2021/12/12 08:13:23;;;;;;;73.15;28.25;;;;;;;2.58;100.00;101838.56;4912240;29;20041;-77
2021/12/12 08:15:49;;;;;;;68.63;26.23;;;;;;;2.61;100.00;101836.66;4892068;29;20040;-76
2021/12/12 08:18:18;;;;;;;67.13;27.80;;;;;;;2.64;100.00;101848.66;4891018;29;20047;-76
2021/12/12 08:20:48;;;;;;;62.00;25.65;;;;;;;2.62;100.00;101840.97;4898330;29;20123;-76
2021/12/12 08:23:15;;;;;;;66.85;25.73;;;;;;;2.69;100.00;101833.75;4912048;29;20076;-76
2021/12/12 08:25:43;;;;;;;57.53;24.75;;;;;;;2.70;100.00;101836.25;4928343;29;20020;-76
2021/12/12 08:28:10;;;;;;;62.45;25.10;;;;;;;2.69;100.00;101838.91;4913095;29;20032;-76
2021/12/12 08:30:37;;;;;;;55.78;24.05;;;;;;;2.70;100.00;101836.25;4899238;29;20095;-76
2021/12/12 08:33:06;;;;;;;66.40;25.08;;;;;;;2.69;100.00;101828.56;4919598;29;20050;-76
2021/12/12 08:35:33;;;;;;;60.63;24.13;;;;;;;2.72;100.00;101825.84;4882431;29;20036;-76
2021/12/12 08:38:02;;;;;;;61.47;24.63;;;;;;;2.68;100.00;101819.94;4909954;29;20079;-76
2021/12/12 08:40:32;;;;;;;62.25;23.35;;;;;;;2.77;100.00;101823.03;4910245;29;20802;-76
2021/12/12 08:42:58;;;;;;;57.58;22.55;;;;;;;2.80;100.00;101812.53;4912386;29;20028;-76
2021/12/12 08:45:29;;;;;;;50.58;21.98;;;;;;;2.74;100.00;101803.28;4912733;29;20103;-76
2021/12/12 08:47:58;;;;;;;58.67;23.55;;;;;;;2.73;100.00;101804.19;4885272;29;20418;-76
2021/12/12 08:50:28;;;;;;;56.28;23.23;;;;;;;2.77;100.00;101797.97;4913311;29;20052;-76
2021/12/12 08:52:57;;;;;;;64.53;24.73;;;;;;;2.69;100.00;101784.50;4914011;29;20778;-76
2021/12/12 08:55:32;;;;;;;60.35;23.85;;;;;;;2.65;100.00;101782.97;4912474;29;20124;-77
2021/12/12 08:58:05;;;;;;;61.95;24.23;;;;;;;2.64;100.00;101774.38;4921619;29;20036;-76
2021/12/12 09:00:40;;;;;;;62.67;23.52;;;;;;;2.71;100.00;101786.16;4909895;29;20407;-76
2021/12/12 09:03:09;;;;;;;60.63;23.15;;;;;;;2.75;100.00;101791.16;4903956;29;20036;-76
2021/12/12 09:05:37;;;;;;;52.83;22.70;;;;;;;2.75;100.00;101780.81;4907888;29;20044;-76
2021/12/12 09:08:10;;;;;;;55.50;22.92;;;;;;;2.68;100.00;101781.09;4909084;29;20068;-77
2021/12/12 09:10:41;;;;;;;56.65;22.48;;;;;;;2.69;100.00;101792.28;4879025;29;20040;-77
2021/12/12 09:13:19;;;;;;;60.58;22.10;;;;;;;2.75;100.00;101802.41;4894494;29;20067;-76
2021/12/12 09:15:48;;;;;;;67.05;23.33;;;;;;;2.78;100.00;101812.59;4898311;29;20032;-76
2021/12/12 09:18:27;;;;;;;59.25;22.67;;;;;;;2.82;100.00;101810.72;4925425;29;20044;-76
2021/12/12 09:21:09;;;;;;;55.03;21.83;;;;;;;2.75;100.00;101793.75;4912680;29;20038;-77
2021/12/12 09:23:50;;;;;;;61.40;22.20;;;;;;;2.79;100.00;101793.56;4909648;29;20120;-77
2021/12/12 09:26:21;;;;;;;64.45;22.92;;;;;;;2.77;100.00;101795.38;4909055;29;20422;-77
2021/12/12 09:29:17;;;;;;;56.05;23.10;;;;;;;2.75;100.00;101789.44;4894167;29;20040;-76
2021/12/12 09:31:59;;;;;;;59.55;22.95;;;;;;;2.82;100.00;101777.84;4902982;29;20139;-76
2021/12/12 09:34:35;;;;;;;61.75;22.38;;;;;;;2.80;100.00;101786.63;4924663;29;20036;-75
2021/12/12 09:37:07;;;;;;;52.20;21.95;;;;;;;2.88;100.00;101787.97;4908382;29;20586;-76
2021/12/12 09:39:38;;;;;;;57.80;22.27;;;;;;;2.85;100.00;101785.50;4890869;29;20067;-76
2021/12/12 09:42:38;;;;;;;57.08;21.23;;;;;;;2.89;100.00;101781.03;4909997;29;20770;-77
2021/12/12 09:45:42;;;;;;;53.67;19.60;;;;;;;3.06;100.00;101781.06;4909857;29;20039;-77
2021/12/12 09:51:27;;;;;;;39.90;16.73;;;;;;;3.14;100.00;101785.88;4921656;29;20071;-76
2021/12/12 09:54:15;;;;;;;29.83;13.52;;;;;;;3.11;100.00;101783.44;4904070;29;20049;-77
2021/12/12 09:57:00;;;;;;;33.75;14.27;;;;;;;3.24;100.00;101788.88;4921211;29;20029;-77
2021/12/12 09:59:32;;;;;;;25.95;12.00;;;;;;;3.31;100.00;101782.47;4913457;29;20515;-77
2021/12/12 10:02:14;;;;;;;23.92;11.10;;;;;;;3.30;100.00;101778.22;4900110;29;20047;-76
2021/12/12 10:04:52;;;;;;;20.92;9.93;;;;;;;3.35;100.00;101780.56;4909168;29;20032;-77
2021/12/12 10:07:30;;;;;;;20.13;9.02;;;;;;;3.36;100.00;101788.28;4915193;29;20036;-77
2021/12/12 10:10:00;;;;;;;20.60;9.55;;;;;;;3.34;100.00;101784.09;4913510;29;20071;-76
2021/12/12 10:12:31;;;;;;;21.20;9.15;;;;;;;3.41;100.00;101786.31;4916813;29;20044;-77
2021/12/12 10:15:11;;;;;;;21.85;9.52;;;;;;;3.48;100.00;101776.47;4913988;29;20396;-76
2021/12/12 10:18:02;;;;;;;15.10;8.30;;;;;;;3.46;100.00;101781.72;4895968;29;20120;-76
2021/12/12 10:21:05;;;;;;;18.85;8.02;;;;;;;3.49;100.00;101772.97;4914540;29;20039;-76
2021/12/12 10:23:56;;;;;;;18.45;7.80;;;;;;;3.53;100.00;101766.72;4890651;29;20671;-76
2021/12/12 10:26:44;;;;;;;15.95;7.13;;;;;;;3.54;100.00;101760.59;4915084;29;20513;-77
2021/12/12 10:29:26;;;;;;;14.52;6.93;;;;;;;3.59;100.00;101762.97;4898266;29;20033;-76
2021/12/12 10:32:02;;;;;;;11.20;6.50;;;;;;;3.64;100.00;101764.44;4906842;29;20040;-77
2021/12/12 10:34:36;;;;;;;13.70;6.22;;;;;;;3.66;100.00;101766.97;4894809;29;20055;-76
2021/12/12 10:37:17;;;;;;;12.65;6.03;;;;;;;3.69;100.00;101766.78;4901830;29;20043;-76
2021/12/12 10:39:50;;;;;;;9.13;5.50;;;;;;;3.74;100.00;101757.03;4910790;29;20036;-77
2021/12/12 10:42:29;;;;;;;13.00;5.50;;;;;;;3.73;100.00;101764.88;4914762;29;20059;-77
2021/12/12 10:45:05;;;;;;;11.60;5.55;;;;;;;3.73;100.00;101754.50;4899453;29;20106;-76
2021/12/12 10:47:56;;;;;;;10.57;6.40;;;;;;;3.72;100.00;101764.03;4914068;29;20421;-75
2021/12/12 10:50:26;;;;;;;9.77;5.60;;;;;;;3.72;100.00;101756.25;4900638;29;20044;-76
2021/12/12 10:53:17;;;;;;;10.68;5.28;;;;;;;3.73;100.00;101765.75;4909926;29;20261;-76
2021/12/12 10:55:47;;;;;;;8.27;4.93;;;;;;;3.76;100.00;101757.78;4915455;29;20037;-76
2021/12/12 10:58:20;;;;;;;10.57;5.90;;;;;;;3.75;100.00;101753.53;4910616;29;20048;-77
2021/12/12 11:00:57;;;;;;;8.23;4.85;;;;;;;3.80;100.00;101758.47;4903910;29;20495;-77
2021/12/12 11:03:30;;;;;;;9.07;5.30;;;;;;;3.75;100.00;101748.34;4914457;29;20055;-76
2021/12/12 11:06:28;;;;;;;9.80;4.28;;;;;;;3.76;100.00;101742.22;4899865;29;20044;-77
2021/12/12 11:08:59;;;;;;;7.90;4.45;;;;;;;3.79;100.00;101749.84;4913762;29;20048;-77
2021/12/12 11:11:40;;;;;;;10.07;4.65;;;;;;;3.81;100.00;101744.59;4902235;29;20059;-76
2021/12/12 11:14:52;;;;;;;12.68;5.05;;;;;;;3.76;100.00;101742.22;4899399;29;20131;-77
2021/12/12 11:17:27;;;;;;;8.50;4.18;;;;;;;3.76;100.00;101738.78;4934997;29;20087;-77
2021/12/12 11:20:19;;;;;;;5.78;4.05;;;;;;;3.81;100.00;101734.19;4927431;29;20059;-76
2021/12/12 11:23:15;;;;;;;7.18;3.97;;;;;;;3.82;100.00;101748.84;4884634;29;20083;-77
2021/12/12 11:25:52;;;;;;;7.15;4.18;;;;;;;3.83;100.00;101755.72;4880179;29;20044;-77
2021/12/12 11:28:27;;;;;;;8.00;4.20;;;;;;;3.79;100.00;101744.66;4896701;29;20406;-76
2021/12/12 11:31:15;;;;;;;8.98;4.72;;;;;;;3.84;100.00;101753.06;4889433;29;20122;-77
2021/12/12 11:33:45;;;;;;;9.32;4.97;;;;;;;3.85;100.00;101759.06;4912144;29;20046;-76
2021/12/12 11:36:14;;;;;;;7.97;5.28;;;;;;;3.84;100.00;101758.25;4895729;29;20467;-75
2021/12/12 11:38:47;;;;;;;7.72;4.93;;;;;;;3.84;100.00;101759.97;4913402;29;20032;-77
2021/12/12 11:41:28;;;;;;;7.68;4.97;;;;;;;3.90;100.00;101742.34;4917577;29;20036;-77
2021/12/12 11:44:21;;;;;;;10.65;5.10;;;;;;;3.93;100.00;101745.72;4913260;29;20071;-77
2021/12/12 11:46:50;;;;;;;9.30;4.90;;;;;;;3.95;100.00;101747.28;4922954;29;20113;-77
2021/12/12 11:49:24;;;;;;;7.10;5.15;;;;;;;3.94;100.00;101744.78;4911562;29;20152;-75
2021/12/12 11:51:56;;;;;;;7.10;5.10;;;;;;;3.99;100.00;101740.19;4919103;29;20099;-75
2021/12/12 11:54:49;;;;;;;7.78;5.03;;;;;;;4.05;100.00;101752.84;4923486;29;20130;-76